sensor_id;sensor_type;location;lat;lon;timestamp;P1;durP1;ratioP1;P2;durP2;ratioP2
15669;SDS011;18524;45.190;5.732;2023-12-14T00:04:01;3.20;;;2.67;;
15669;SDS011;18524;45.190;5.732;2023-12-14T00:08:54;3.00;;;2.70;;
15669;SDS011;18524;45.190;5.732;2023-12-14T00:13:44;3.00;;;2.60;;
15669;SDS011;18524;45.190;5.732;2023-12-14T00:18:35;3.30;;;2.97;;
15669;SDS011;18524;45.190;5.732;2023-12-14T00:23:26;3.67;;;3.37;;
15669;SDS011;18524;45.190;5.732;2023-12-14T00:28:16;3.97;;;3.57;;
15669;SDS011;18524;45.190;5.732;2023-12-14T00:33:07;3.70;;;3.40;;
15669;SDS011;18524;45.190;5.732;2023-12-14T00:37:58;3.80;;;3.50;;
15669;SDS011;18524;45.190;5.732;2023-12-14T00:42:48;3.60;;;3.30;;
15669;SDS011;18524;45.190;5.732;2023-12-14T00:47:38;3.40;;;2.93;;
15669;SDS011;18524;45.190;5.732;2023-12-14T00:52:29;4.03;;;3.63;;
15669;SDS011;18524;45.190;5.732;2023-12-14T00:57:19;4.40;;;3.80;;
15669;SDS011;18524;45.190;5.732;2023-12-14T01:02:10;4.23;;;3.80;;
15669;SDS011;18524;45.190;5.732;2023-12-14T01:07:00;4.70;;;4.30;;
15669;SDS011;18524;45.190;5.732;2023-12-14T01:11:50;5.57;;;5.00;;
15669;SDS011;18524;45.190;5.732;2023-12-14T01:16:41;5.03;;;4.63;;
15669;SDS011;18524;45.190;5.732;2023-12-14T01:21:32;5.47;;;4.97;;
15669;SDS011;18524;45.190;5.732;2023-12-14T01:26:22;5.53;;;4.90;;
15669;SDS011;18524;45.190;5.732;2023-12-14T01:31:13;5.00;;;4.60;;
15669;SDS011;18524;45.190;5.732;2023-12-14T01:36:03;4.57;;;4.07;;
15669;SDS011;18524;45.190;5.732;2023-12-14T01:40:54;4.73;;;4.30;;
15669;SDS011;18524;45.190;5.732;2023-12-14T01:45:46;4.30;;;3.90;;
15669;SDS011;18524;45.190;5.732;2023-12-14T01:50:36;6.03;;;5.40;;
15669;SDS011;18524;45.190;5.732;2023-12-14T01:55:26;7.33;;;5.87;;
15669;SDS011;18524;45.190;5.732;2023-12-14T02:01:20;9.30;;;8.40;;
15669;SDS011;18524;45.190;5.732;2023-12-14T02:05:49;10.23;;;9.17;;
15669;SDS011;18524;45.190;5.732;2023-12-14T02:10:39;8.93;;;8.03;;
15669;SDS011;18524;45.190;5.732;2023-12-14T02:15:30;7.53;;;6.80;;
15669;SDS011;18524;45.190;5.732;2023-12-14T02:20:20;8.33;;;7.53;;
15669;SDS011;18524;45.190;5.732;2023-12-14T02:25:11;8.40;;;7.60;;
15669;SDS011;18524;45.190;5.732;2023-12-14T02:30:01;6.50;;;5.90;;
15669;SDS011;18524;45.190;5.732;2023-12-14T02:34:51;7.77;;;7.03;;
15669;SDS011;18524;45.190;5.732;2023-12-14T02:39:42;8.77;;;7.83;;
15669;SDS011;18524;45.190;5.732;2023-12-14T02:44:32;9.70;;;8.33;;
15669;SDS011;18524;45.190;5.732;2023-12-14T02:49:22;9.10;;;8.10;;
15669;SDS011;18524;45.190;5.732;2023-12-14T02:54:13;10.07;;;8.23;;
15669;SDS011;18524;45.190;5.732;2023-12-14T02:59:03;7.77;;;6.77;;
15669;SDS011;18524;45.190;5.732;2023-12-14T03:03:53;8.23;;;7.43;;
15669;SDS011;18524;45.190;5.732;2023-12-14T03:08:44;8.27;;;7.47;;
15669;SDS011;18524;45.190;5.732;2023-12-14T03:13:34;8.27;;;7.47;;
15669;SDS011;18524;45.190;5.732;2023-12-14T03:18:24;7.30;;;6.60;;
15669;SDS011;18524;45.190;5.732;2023-12-14T03:23:15;8.10;;;7.30;;
15669;SDS011;18524;45.190;5.732;2023-12-14T03:28:05;6.60;;;6.00;;
15669;SDS011;18524;45.190;5.732;2023-12-14T03:32:56;4.90;;;4.40;;
15669;SDS011;18524;45.190;5.732;2023-12-14T03:37:46;4.67;;;4.20;;
15669;SDS011;18524;45.190;5.732;2023-12-14T03:42:37;4.80;;;4.07;;
15669;SDS011;18524;45.190;5.732;2023-12-14T03:47:27;4.63;;;4.23;;
15669;SDS011;18524;45.190;5.732;2023-12-14T03:52:17;5.37;;;4.87;;
15669;SDS011;18524;45.190;5.732;2023-12-14T03:57:08;4.43;;;4.03;;
15669;SDS011;18524;45.190;5.732;2023-12-14T04:01:58;5.27;;;4.70;;
15669;SDS011;18524;45.190;5.732;2023-12-14T04:06:48;5.10;;;4.60;;
15669;SDS011;18524;45.190;5.732;2023-12-14T04:11:39;5.10;;;4.60;;
15669;SDS011;18524;45.190;5.732;2023-12-14T04:16:29;5.93;;;5.10;;
15669;SDS011;18524;45.190;5.732;2023-12-14T04:21:20;6.53;;;5.53;;
15669;SDS011;18524;45.190;5.732;2023-12-14T04:26:10;7.33;;;6.57;;
15669;SDS011;18524;45.190;5.732;2023-12-14T04:31:00;8.67;;;7.33;;
15669;SDS011;18524;45.190;5.732;2023-12-14T04:35:51;8.80;;;7.50;;
15669;SDS011;18524;45.190;5.732;2023-12-14T04:40:41;8.83;;;7.47;;
15669;SDS011;18524;45.190;5.732;2023-12-14T04:45:31;9.10;;;8.20;;
15669;SDS011;18524;45.190;5.732;2023-12-14T04:50:22;8.53;;;7.63;;
15669;SDS011;18524;45.190;5.732;2023-12-14T04:55:12;8.83;;;7.93;;
15669;SDS011;18524;45.190;5.732;2023-12-14T05:00:04;8.70;;;7.80;;
15669;SDS011;18524;45.190;5.732;2023-12-14T05:04:55;9.57;;;7.90;;
15669;SDS011;18524;45.190;5.732;2023-12-14T05:09:46;8.43;;;7.30;;
15669;SDS011;18524;45.190;5.732;2023-12-14T05:14:36;5.20;;;4.77;;
15669;SDS011;18524;45.190;5.732;2023-12-14T05:19:26;3.93;;;3.53;;
15669;SDS011;18524;45.190;5.732;2023-12-14T05:24:17;5.13;;;4.50;;
15669;SDS011;18524;45.190;5.732;2023-12-14T05:29:07;5.10;;;4.60;;
15669;SDS011;18524;45.190;5.732;2023-12-14T05:33:59;5.40;;;4.90;;
15669;SDS011;18524;45.190;5.732;2023-12-14T05:38:49;6.13;;;5.53;;
15669;SDS011;18524;45.190;5.732;2023-12-14T05:43:39;5.77;;;5.03;;
15669;SDS011;18524;45.190;5.732;2023-12-14T05:48:30;5.40;;;4.90;;
15669;SDS011;18524;45.190;5.732;2023-12-14T05:53:20;5.77;;;5.00;;
15669;SDS011;18524;45.190;5.732;2023-12-14T05:58:11;6.17;;;5.57;;
15669;SDS011;18524;45.190;5.732;2023-12-14T06:03:01;8.27;;;6.40;;
15669;SDS011;18524;45.190;5.732;2023-12-14T06:07:52;6.93;;;6.23;;
15669;SDS011;18524;45.190;5.732;2023-12-14T06:12:43;5.57;;;5.00;;
15669;SDS011;18524;45.190;5.732;2023-12-14T06:17:33;4.30;;;3.90;;
15669;SDS011;18524;45.190;5.732;2023-12-14T06:22:24;4.67;;;3.90;;
15669;SDS011;18524;45.190;5.732;2023-12-14T06:27:14;4.40;;;4.00;;
15669;SDS011;18524;45.190;5.732;2023-12-14T06:32:04;4.93;;;4.13;;
15669;SDS011;18524;45.190;5.732;2023-12-14T06:36:55;4.77;;;4.37;;
15669;SDS011;18524;45.190;5.732;2023-12-14T06:41:48;4.90;;;4.37;;
15669;SDS011;18524;45.190;5.732;2023-12-14T06:46:38;3.97;;;3.57;;
15669;SDS011;18524;45.190;5.732;2023-12-14T06:51:28;3.57;;;3.20;;
15669;SDS011;18524;45.190;5.732;2023-12-14T06:56:19;2.90;;;2.60;;
15669;SDS011;18524;45.190;5.732;2023-12-14T07:01:13;2.13;;;1.93;;
15669;SDS011;18524;45.190;5.732;2023-12-14T07:06:04;2.40;;;1.60;;
15669;SDS011;18524;45.190;5.732;2023-12-14T07:10:55;4.10;;;3.73;;
15669;SDS011;18524;45.190;5.732;2023-12-14T07:15:45;3.60;;;3.30;;
15669;SDS011;18524;45.190;5.732;2023-12-14T07:20:35;2.00;;;1.57;;
15669;SDS011;18524;45.190;5.732;2023-12-14T07:25:26;2.00;;;1.27;;
15669;SDS011;18524;45.190;5.732;2023-12-14T07:30:16;2.33;;;1.60;;
15669;SDS011;18524;45.190;5.732;2023-12-14T07:35:07;1.60;;;1.50;;
15669;SDS011;18524;45.190;5.732;2023-12-14T07:39:57;2.40;;;1.67;;
15669;SDS011;18524;45.190;5.732;2023-12-14T07:44:50;1.83;;;1.30;;
15669;SDS011;18524;45.190;5.732;2023-12-14T07:49:41;1.50;;;1.40;;
15669;SDS011;18524;45.190;5.732;2023-12-14T07:54:31;2.77;;;2.53;;
15669;SDS011;18524;45.190;5.732;2023-12-14T07:59:22;5.37;;;4.87;;
15669;SDS011;18524;45.190;5.732;2023-12-14T08:04:12;6.33;;;5.73;;
15669;SDS011;18524;45.190;5.732;2023-12-14T08:09:03;5.67;;;5.07;;
15669;SDS011;18524;45.190;5.732;2023-12-14T08:13:53;3.70;;;3.33;;
15669;SDS011;18524;45.190;5.732;2023-12-14T08:18:43;2.80;;;2.00;;
15669;SDS011;18524;45.190;5.732;2023-12-14T08:23:38;2.23;;;1.27;;
15669;SDS011;18524;45.190;5.732;2023-12-14T08:28:28;1.07;;;1.00;;
15669;SDS011;18524;45.190;5.732;2023-12-14T08:33:19;1.00;;;0.80;;
15669;SDS011;18524;45.190;5.732;2023-12-14T08:38:10;1.03;;;0.70;;
15669;SDS011;18524;45.190;5.732;2023-12-14T08:43:01;1.10;;;0.60;;
15669;SDS011;18524;45.190;5.732;2023-12-14T08:47:52;4.50;;;3.30;;
15669;SDS011;18524;45.190;5.732;2023-12-14T08:52:43;3.40;;;3.07;;
15669;SDS011;18524;45.190;5.732;2023-12-14T08:57:34;5.10;;;3.73;;
15669;SDS011;18524;45.190;5.732;2023-12-14T09:02:24;5.27;;;4.40;;
15669;SDS011;18524;45.190;5.732;2023-12-14T09:07:15;8.70;;;6.50;;
15669;SDS011;18524;45.190;5.732;2023-12-14T09:12:05;9.37;;;5.50;;
15669;SDS011;18524;45.190;5.732;2023-12-14T09:16:56;4.47;;;3.93;;
15669;SDS011;18524;45.190;5.732;2023-12-14T09:21:46;4.07;;;3.67;;
15669;SDS011;18524;45.190;5.732;2023-12-14T09:26:37;4.33;;;2.77;;
15669;SDS011;18524;45.190;5.732;2023-12-14T09:31:27;3.00;;;2.00;;
15669;SDS011;18524;45.190;5.732;2023-12-14T09:36:18;2.10;;;1.90;;
15669;SDS011;18524;45.190;5.732;2023-12-14T09:41:08;2.33;;;2.13;;
15669;SDS011;18524;45.190;5.732;2023-12-14T09:45:58;1.37;;;1.13;;
15669;SDS011;18524;45.190;5.732;2023-12-14T09:50:50;1.50;;;1.30;;
15669;SDS011;18524;45.190;5.732;2023-12-14T09:55:41;2.10;;;1.90;;
15669;SDS011;18524;45.190;5.732;2023-12-14T10:00:32;2.27;;;2.00;;
15669;SDS011;18524;45.190;5.732;2023-12-14T10:05:24;3.70;;;2.97;;
15669;SDS011;18524;45.190;5.732;2023-12-14T10:10:14;4.43;;;2.90;;
15669;SDS011;18524;45.190;5.732;2023-12-14T10:15:05;2.90;;;2.43;;
15669;SDS011;18524;45.190;5.732;2023-12-14T10:19:56;2.60;;;2.40;;
15669;SDS011;18524;45.190;5.732;2023-12-14T10:24:46;4.17;;;2.60;;
15669;SDS011;18524;45.190;5.732;2023-12-14T10:29:37;6.83;;;4.30;;
15669;SDS011;18524;45.190;5.732;2023-12-14T10:34:29;5.50;;;3.73;;
15669;SDS011;18524;45.190;5.732;2023-12-14T10:39:19;5.33;;;4.10;;
15669;SDS011;18524;45.190;5.732;2023-12-14T10:44:10;14.57;;;5.13;;
15669;SDS011;18524;45.190;5.732;2023-12-14T10:49:01;13.47;;;5.13;;
15669;SDS011;18524;45.190;5.732;2023-12-14T10:53:52;10.00;;;5.73;;
15669;SDS011;18524;45.190;5.732;2023-12-14T11:03:44;13.27;;;5.93;;
15669;SDS011;18524;45.190;5.732;2023-12-14T11:08:36;9.83;;;4.90;;
15669;SDS011;18524;45.190;5.732;2023-12-14T11:13:27;17.77;;;7.77;;
15669;SDS011;18524;45.190;5.732;2023-12-14T11:18:22;4.60;;;3.40;;
15669;SDS011;18524;45.190;5.732;2023-12-14T11:23:15;10.23;;;4.33;;
15669;SDS011;18524;45.190;5.732;2023-12-14T11:28:07;10.63;;;5.17;;
15669;SDS011;18524;45.190;5.732;2023-12-14T11:33:00;8.43;;;4.60;;
15669;SDS011;18524;45.190;5.732;2023-12-14T11:37:50;4.47;;;3.20;;
15669;SDS011;18524;45.190;5.732;2023-12-14T11:42:41;10.53;;;5.17;;
15669;SDS011;18524;45.190;5.732;2023-12-14T11:47:31;6.23;;;4.10;;
15669;SDS011;18524;45.190;5.732;2023-12-14T11:52:22;5.90;;;4.30;;
15669;SDS011;18524;45.190;5.732;2023-12-14T11:57:12;8.90;;;5.97;;
15669;SDS011;18524;45.190;5.732;2023-12-14T12:02:02;7.80;;;5.80;;
15669;SDS011;18524;45.190;5.732;2023-12-14T12:07:00;6.10;;;5.37;;
15669;SDS011;18524;45.190;5.732;2023-12-14T12:11:52;3.20;;;2.90;;
15669;SDS011;18524;45.190;5.732;2023-12-14T12:16:43;5.50;;;4.23;;
15669;SDS011;18524;45.190;5.732;2023-12-14T12:21:34;2.80;;;2.60;;
15669;SDS011;18524;45.190;5.732;2023-12-14T12:26:24;3.83;;;3.27;;
15669;SDS011;18524;45.190;5.732;2023-12-14T12:31:14;4.17;;;3.50;;
15669;SDS011;18524;45.190;5.732;2023-12-14T12:36:05;4.00;;;3.10;;
15669;SDS011;18524;45.190;5.732;2023-12-14T12:40:55;5.00;;;4.33;;
15669;SDS011;18524;45.190;5.732;2023-12-14T12:45:46;5.93;;;4.73;;
15669;SDS011;18524;45.190;5.732;2023-12-14T12:50:36;4.90;;;4.40;;
15669;SDS011;18524;45.190;5.732;2023-12-14T12:55:27;5.13;;;4.60;;
15669;SDS011;18524;45.190;5.732;2023-12-14T13:00:17;7.03;;;4.67;;
15669;SDS011;18524;45.190;5.732;2023-12-14T13:05:08;4.20;;;3.20;;
15669;SDS011;18524;45.190;5.732;2023-12-14T13:09:59;6.53;;;4.87;;
15669;SDS011;18524;45.190;5.732;2023-12-14T13:14:50;3.37;;;2.97;;
15669;SDS011;18524;45.190;5.732;2023-12-14T13:19:40;2.90;;;2.70;;
15669;SDS011;18524;45.190;5.732;2023-12-14T13:24:30;5.03;;;3.70;;
15669;SDS011;18524;45.190;5.732;2023-12-14T13:29:20;3.47;;;3.17;;
15669;SDS011;18524;45.190;5.732;2023-12-14T13:34:11;2.17;;;1.97;;
15669;SDS011;18524;45.190;5.732;2023-12-14T13:39:01;1.93;;;1.67;;
15669;SDS011;18524;45.190;5.732;2023-12-14T13:43:52;4.50;;;2.63;;
15669;SDS011;18524;45.190;5.732;2023-12-14T13:48:42;1.70;;;1.60;;
15669;SDS011;18524;45.190;5.732;2023-12-14T13:53:32;2.07;;;1.77;;
15669;SDS011;18524;45.190;5.732;2023-12-14T13:58:23;3.47;;;2.70;;
15669;SDS011;18524;45.190;5.732;2023-12-14T14:03:13;2.07;;;1.80;;
15669;SDS011;18524;45.190;5.732;2023-12-14T14:08:04;3.50;;;2.00;;
15669;SDS011;18524;45.190;5.732;2023-12-14T14:12:54;2.00;;;1.77;;
15669;SDS011;18524;45.190;5.732;2023-12-14T14:17:45;2.00;;;1.80;;
15669;SDS011;18524;45.190;5.732;2023-12-14T14:22:38;2.30;;;1.90;;
15669;SDS011;18524;45.190;5.732;2023-12-14T14:27:28;2.50;;;2.30;;
15669;SDS011;18524;45.190;5.732;2023-12-14T14:32:19;1.60;;;1.50;;
15669;SDS011;18524;45.190;5.732;2023-12-14T14:37:09;2.03;;;1.50;;
15669;SDS011;18524;45.190;5.732;2023-12-14T14:42:00;4.13;;;3.20;;
15669;SDS011;18524;45.190;5.732;2023-12-14T14:46:50;5.17;;;3.27;;
15669;SDS011;18524;45.190;5.732;2023-12-14T14:51:41;3.17;;;2.30;;
15669;SDS011;18524;45.190;5.732;2023-12-14T14:56:32;3.07;;;2.50;;
15669;SDS011;18524;45.190;5.732;2023-12-14T15:01:22;1.47;;;1.37;;
15669;SDS011;18524;45.190;5.732;2023-12-14T15:06:13;1.50;;;1.40;;
15669;SDS011;18524;45.190;5.732;2023-12-14T15:11:03;2.67;;;1.90;;
15669;SDS011;18524;45.190;5.732;2023-12-14T15:15:56;1.43;;;1.23;;
15669;SDS011;18524;45.190;5.732;2023-12-14T15:20:46;2.43;;;1.40;;
15669;SDS011;18524;45.190;5.732;2023-12-14T15:25:38;1.30;;;1.20;;
15669;SDS011;18524;45.190;5.732;2023-12-14T15:30:29;1.30;;;1.20;;
15669;SDS011;18524;45.190;5.732;2023-12-14T15:35:20;1.67;;;1.30;;
15669;SDS011;18524;45.190;5.732;2023-12-14T15:40:10;1.20;;;1.10;;
15669;SDS011;18524;45.190;5.732;2023-12-14T15:45:00;1.30;;;0.93;;
15669;SDS011;18524;45.190;5.732;2023-12-14T15:49:51;2.10;;;1.27;;
15669;SDS011;18524;45.190;5.732;2023-12-14T15:54:41;1.23;;;1.13;;
15669;SDS011;18524;45.190;5.732;2023-12-14T15:59:32;1.30;;;1.20;;
15669;SDS011;18524;45.190;5.732;2023-12-14T16:04:22;1.57;;;1.20;;
15669;SDS011;18524;45.190;5.732;2023-12-14T16:09:12;3.57;;;1.60;;
15669;SDS011;18524;45.190;5.732;2023-12-14T16:14:03;1.73;;;1.23;;
15669;SDS011;18524;45.190;5.732;2023-12-14T16:18:53;2.77;;;1.80;;
15669;SDS011;18524;45.190;5.732;2023-12-14T16:23:43;3.03;;;1.90;;
15669;SDS011;18524;45.190;5.732;2023-12-14T16:28:34;2.73;;;1.77;;
15669;SDS011;18524;45.190;5.732;2023-12-14T16:33:24;1.70;;;1.43;;
15669;SDS011;18524;45.190;5.732;2023-12-14T16:38:14;1.90;;;1.47;;
15669;SDS011;18524;45.190;5.732;2023-12-14T16:43:05;3.37;;;2.50;;
15669;SDS011;18524;45.190;5.732;2023-12-14T16:47:55;6.07;;;3.67;;
15669;SDS011;18524;45.190;5.732;2023-12-14T16:52:46;5.30;;;3.40;;
15669;SDS011;18524;45.190;5.732;2023-12-14T16:57:36;3.90;;;2.70;;
15669;SDS011;18524;45.190;5.732;2023-12-14T17:02:26;3.77;;;3.03;;
15669;SDS011;18524;45.190;5.732;2023-12-14T17:07:17;4.30;;;3.50;;
15669;SDS011;18524;45.190;5.732;2023-12-14T17:12:07;7.93;;;4.00;;
15669;SDS011;18524;45.190;5.732;2023-12-14T17:16:58;4.47;;;3.20;;
15669;SDS011;18524;45.190;5.732;2023-12-14T17:21:51;3.13;;;2.83;;
15669;SDS011;18524;45.190;5.732;2023-12-14T17:26:42;3.37;;;2.60;;
15669;SDS011;18524;45.190;5.732;2023-12-14T17:31:32;3.13;;;2.80;;
15669;SDS011;18524;45.190;5.732;2023-12-14T17:36:23;2.57;;;2.37;;
15669;SDS011;18524;45.190;5.732;2023-12-14T17:41:13;2.20;;;1.90;;
15669;SDS011;18524;45.190;5.732;2023-12-14T17:46:05;2.67;;;2.10;;
15669;SDS011;18524;45.190;5.732;2023-12-14T17:50:55;2.00;;;1.90;;
15669;SDS011;18524;45.190;5.732;2023-12-14T17:55:47;2.20;;;2.00;;
15669;SDS011;18524;45.190;5.732;2023-12-14T18:00:37;2.33;;;2.13;;
15669;SDS011;18524;45.190;5.732;2023-12-14T18:05:28;3.27;;;2.50;;
15669;SDS011;18524;45.190;5.732;2023-12-14T18:10:19;2.77;;;2.37;;
15669;SDS011;18524;45.190;5.732;2023-12-14T18:15:10;4.03;;;2.70;;
15669;SDS011;18524;45.190;5.732;2023-12-14T18:20:00;2.40;;;2.20;;
15669;SDS011;18524;45.190;5.732;2023-12-14T18:24:51;2.50;;;2.30;;
15669;SDS011;18524;45.190;5.732;2023-12-14T18:29:41;2.23;;;2.10;;
15669;SDS011;18524;45.190;5.732;2023-12-14T18:34:31;2.87;;;2.60;;
15669;SDS011;18524;45.190;5.732;2023-12-14T18:39:22;2.77;;;2.50;;
15669;SDS011;18524;45.190;5.732;2023-12-14T18:44:13;3.00;;;2.70;;
15669;SDS011;18524;45.190;5.732;2023-12-14T18:49:03;5.90;;;4.70;;
15669;SDS011;18524;45.190;5.732;2023-12-14T18:53:53;2.50;;;2.30;;
15669;SDS011;18524;45.190;5.732;2023-12-14T18:58:44;3.10;;;2.90;;
15669;SDS011;18524;45.190;5.732;2023-12-14T19:03:34;3.47;;;3.17;;
15669;SDS011;18524;45.190;5.732;2023-12-14T19:08:27;3.97;;;3.27;;
15669;SDS011;18524;45.190;5.732;2023-12-14T19:13:17;3.53;;;3.00;;
15669;SDS011;18524;45.190;5.732;2023-12-14T19:18:07;3.50;;;2.83;;
15669;SDS011;18524;45.190;5.732;2023-12-14T19:22:58;3.20;;;2.90;;
15669;SDS011;18524;45.190;5.732;2023-12-14T19:27:49;8.47;;;7.37;;
15669;SDS011;18524;45.190;5.732;2023-12-14T19:32:42;5.77;;;5.27;;
15669;SDS011;18524;45.190;5.732;2023-12-14T19:37:33;3.67;;;3.37;;
15669;SDS011;18524;45.190;5.732;2023-12-14T19:42:24;2.73;;;2.53;;
15669;SDS011;18524;45.190;5.732;2023-12-14T19:47:14;2.60;;;2.40;;
15669;SDS011;18524;45.190;5.732;2023-12-14T19:52:06;3.13;;;2.93;;
15669;SDS011;18524;45.190;5.732;2023-12-14T19:56:58;1.80;;;1.67;;
15669;SDS011;18524;45.190;5.732;2023-12-14T20:01:48;1.80;;;1.57;;
15669;SDS011;18524;45.190;5.732;2023-12-14T20:06:38;1.50;;;1.40;;
15669;SDS011;18524;45.190;5.732;2023-12-14T20:11:29;1.90;;;1.80;;
15669;SDS011;18524;45.190;5.732;2023-12-14T20:16:19;1.43;;;1.33;;
15669;SDS011;18524;45.190;5.732;2023-12-14T20:21:10;1.60;;;1.27;;
15669;SDS011;18524;45.190;5.732;2023-12-14T20:26:00;2.37;;;1.73;;
15669;SDS011;18524;45.190;5.732;2023-12-14T20:30:51;3.93;;;3.40;;
15669;SDS011;18524;45.190;5.732;2023-12-14T20:35:42;2.97;;;2.00;;
15669;SDS011;18524;45.190;5.732;2023-12-14T20:40:33;2.40;;;2.20;;
15669;SDS011;18524;45.190;5.732;2023-12-14T20:45:24;2.13;;;1.50;;
15669;SDS011;18524;45.190;5.732;2023-12-14T20:50:14;2.90;;;2.30;;
15669;SDS011;18524;45.190;5.732;2023-12-14T20:55:06;2.53;;;1.70;;
15669;SDS011;18524;45.190;5.732;2023-12-14T20:59:56;2.20;;;1.90;;
15669;SDS011;18524;45.190;5.732;2023-12-14T21:04:46;2.87;;;1.80;;
15669;SDS011;18524;45.190;5.732;2023-12-14T21:09:38;2.53;;;2.33;;
15669;SDS011;18524;45.190;5.732;2023-12-14T21:14:29;3.07;;;2.67;;
15669;SDS011;18524;45.190;5.732;2023-12-14T21:19:20;2.90;;;2.13;;
15669;SDS011;18524;45.190;5.732;2023-12-14T21:24:10;2.50;;;2.30;;
15669;SDS011;18524;45.190;5.732;2023-12-14T21:29:01;2.50;;;2.30;;
15669;SDS011;18524;45.190;5.732;2023-12-14T21:33:52;3.00;;;2.37;;
15669;SDS011;18524;45.190;5.732;2023-12-14T21:38:42;17.00;;;11.60;;
15669;SDS011;18524;45.190;5.732;2023-12-14T21:43:33;13.33;;;9.37;;
15669;SDS011;18524;45.190;5.732;2023-12-14T21:48:23;20.87;;;13.93;;
15669;SDS011;18524;45.190;5.732;2023-12-14T21:53:14;9.57;;;6.80;;
15669;SDS011;18524;45.190;5.732;2023-12-14T21:58:04;7.80;;;6.33;;
15669;SDS011;18524;45.190;5.732;2023-12-14T22:02:54;4.47;;;4.07;;
15669;SDS011;18524;45.190;5.732;2023-12-14T22:07:45;3.50;;;3.20;;
15669;SDS011;18524;45.190;5.732;2023-12-14T22:12:35;4.27;;;3.50;;
15669;SDS011;18524;45.190;5.732;2023-12-14T22:17:25;3.80;;;3.50;;
15669;SDS011;18524;45.190;5.732;2023-12-14T22:22:16;4.50;;;3.87;;
15669;SDS011;18524;45.190;5.732;2023-12-14T22:27:06;4.53;;;3.83;;
15669;SDS011;18524;45.190;5.732;2023-12-14T22:31:57;3.40;;;3.10;;
15669;SDS011;18524;45.190;5.732;2023-12-14T22:36:48;3.83;;;3.43;;
15669;SDS011;18524;45.190;5.732;2023-12-14T22:41:39;3.33;;;2.80;;
15669;SDS011;18524;45.190;5.732;2023-12-14T22:46:29;4.00;;;3.37;;
15669;SDS011;18524;45.190;5.732;2023-12-14T22:51:19;3.70;;;3.40;;
15669;SDS011;18524;45.190;5.732;2023-12-14T22:56:11;3.67;;;3.37;;
15669;SDS011;18524;45.190;5.732;2023-12-14T23:01:09;4.13;;;3.40;;
15669;SDS011;18524;45.190;5.732;2023-12-14T23:05:59;4.30;;;3.47;;
15669;SDS011;18524;45.190;5.732;2023-12-14T23:10:50;5.13;;;3.13;;
15669;SDS011;18524;45.190;5.732;2023-12-14T23:15:40;4.13;;;3.50;;
15669;SDS011;18524;45.190;5.732;2023-12-14T23:20:30;3.40;;;3.03;;
15669;SDS011;18524;45.190;5.732;2023-12-14T23:25:21;4.00;;;3.60;;
15669;SDS011;18524;45.190;5.732;2023-12-14T23:30:11;3.90;;;3.50;;
15669;SDS011;18524;45.190;5.732;2023-12-14T23:35:02;3.60;;;3.30;;
15669;SDS011;18524;45.190;5.732;2023-12-14T23:39:52;3.50;;;3.20;;
15669;SDS011;18524;45.190;5.732;2023-12-14T23:44:42;4.07;;;3.37;;
15669;SDS011;18524;45.190;5.732;2023-12-14T23:49:33;4.83;;;3.33;;
15669;SDS011;18524;45.190;5.732;2023-12-14T23:54:23;3.90;;;3.50;;
15669;SDS011;18524;45.190;5.732;2023-12-14T23:59:13;4.03;;;3.60;;
